Time,TemperatureF,DewpointF,PressureIn,WindDirection,WindDirectionDegrees,WindSpeedMPH,WindSpeedGustMPH,Humidity,HourlyPrecipIn,Conditions,Clouds,dailyrainin,SoftwareType,DateUTC
2013-05-21 00:00:00,42.0,-99.9,-100.00,South,185,15.0,20.0,-999,-99.99,,,-99.99,,2013-05-21 06:00:00,
2013-05-21 00:52:00,42.0,-99.9,-100.00,South,185,15.0,20.0,-999,-99.99,,,-99.99,,2013-05-21 06:52:00,
2013-05-21 01:00:00,42.0,-99.9,-100.00,South,185,9.0,15.0,-999,-99.99,,,-99.99,,2013-05-21 07:00:00,
2013-05-21 01:52:00,42.0,-99.9,-100.00,South,185,9.0,15.0,-999,-99.99,,,-99.99,,2013-05-21 07:52:00,
2013-05-21 02:00:00,41.0,-99.9,-100.00,South,185,14.0,21.0,-999,-99.99,,,-99.99,,2013-05-21 08:00:00,
2013-05-21 02:52:00,41.0,-99.9,-100.00,South,185,14.0,21.0,-999,-99.99,,,-99.99,,2013-05-21 08:52:00,
2013-05-21 03:00:00,41.0,-99.9,-100.00,South,185,16.0,18.0,-999,-99.99,,,-99.99,,2013-05-21 09:00:00,
2013-05-21 03:53:00,41.0,-99.9,-100.00,South,185,16.0,18.0,-999,-99.99,,,-99.99,,2013-05-21 09:53:00,
2013-05-21 04:00:00,39.0,-99.9,-100.00,South,185,15.0,29.0,-999,-99.99,,,-99.99,,2013-05-21 10:00:00,
2013-05-21 04:53:00,39.0,-99.9,-100.00,South,185,15.0,29.0,-999,-99.99,,,-99.99,,2013-05-21 10:53:00,
2013-05-21 05:00:00,39.0,-99.9,-100.00,South,185,13.0,20.0,-999,-99.99,,,-99.99,,2013-05-21 11:00:00,
2013-05-21 05:52:00,39.0,-99.9,-100.00,South,185,13.0,20.0,-999,-99.99,,,-99.99,,2013-05-21 11:52:00,
2013-05-21 06:52:00,39.0,-99.9,-100.00,South,185,13.0,15.0,-999,-99.99,,,-99.99,,2013-05-21 12:52:00,
2013-05-21 07:00:00,41.0,-99.9,-100.00,South,185,13.0,20.0,-999,-99.99,,,-99.99,,2013-05-21 13:00:00,
2013-05-21 07:01:00,39.0,-99.9,-100.00,South,185,13.0,15.0,-999,-99.99,,,-99.99,,2013-05-21 13:01:00,
2013-05-21 07:52:00,41.0,-99.9,-100.00,South,185,13.0,20.0,-999,-99.99,,,-99.99,,2013-05-21 13:52:00,
2013-05-21 08:00:00,44.0,-99.9,-100.00,South,185,22.0,28.0,-999,-99.99,,,-99.99,,2013-05-21 14:00:00,
2013-05-21 08:52:00,44.0,-99.9,-100.00,South,185,22.0,28.0,-999,-99.99,,,-99.99,,2013-05-21 14:52:00,
2013-05-21 09:00:00,48.0,-99.9,-100.00,South,185,27.0,34.0,-999,-99.99,,,-99.99,,2013-05-21 15:00:00,
2013-05-21 09:53:00,48.0,-99.9,-100.00,South,185,27.0,34.0,-999,-99.99,,,-99.99,,2013-05-21 15:53:00,
2013-05-21 10:00:00,48.0,-99.9,-100.00,South,185,26.0,32.0,-999,-99.99,,,-99.99,,2013-05-21 16:00:00,
2013-05-21 10:53:00,48.0,-99.9,-100.00,South,185,26.0,32.0,-999,-99.99,,,-99.99,,2013-05-21 16:53:00,
2013-05-21 11:53:00,48.0,-99.9,-100.00,South,185,22.0,30.0,-999,-99.99,,,-99.99,,2013-05-21 17:53:00,
2013-05-21 12:00:00,50.0,-99.9,-100.00,South,185,24.0,29.0,-999,-99.99,,,-99.99,,2013-05-21 18:00:00,
2013-05-21 12:02:00,48.0,-99.9,-100.00,South,185,22.0,30.0,-999,-99.99,,,-99.99,,2013-05-21 18:02:00,
2013-05-21 12:52:00,50.0,-99.9,-100.00,South,185,24.0,29.0,-999,-99.99,,,-99.99,,2013-05-21 18:52:00,
2013-05-21 13:00:00,48.0,-99.9,-100.00,South,185,23.0,31.0,-999,-99.99,,,-99.99,,2013-05-21 19:00:00,
2013-05-21 13:52:00,48.0,-99.9,-100.00,South,185,23.0,31.0,-999,-99.99,,,-99.99,,2013-05-21 19:52:00,
2013-05-21 14:00:00,53.0,-99.9,-100.00,South,185,21.0,34.0,-999,-99.99,,,-99.99,,2013-05-21 20:00:00,
2013-05-21 14:52:00,53.0,-99.9,-100.00,South,185,21.0,34.0,-999,-99.99,,,-99.99,,2013-05-21 20:52:00,
2013-05-21 15:00:00,50.0,-99.9,-100.00,South,185,25.0,32.0,-999,-99.99,,,-99.99,,2013-05-21 21:00:00,
2013-05-21 15:54:00,50.0,-99.9,-100.00,South,185,25.0,32.0,-999,-99.99,,,-99.99,,2013-05-21 21:54:00,
2013-05-21 16:00:00,51.0,-99.9,-100.00,South,185,24.0,29.0,-999,-99.99,,,-99.99,,2013-05-21 22:00:00,
2013-05-21 16:53:00,51.0,-99.9,-100.00,South,185,24.0,29.0,-999,-99.99,,,-99.99,,2013-05-21 22:53:00,
2013-05-21 17:00:00,50.0,-99.9,-100.00,South,185,14.0,21.0,-999,-99.99,,,-99.99,,2013-05-21 23:00:00,
2013-05-21 17:52:00,50.0,-99.9,-100.00,South,185,14.0,21.0,-999,-99.99,,,-99.99,,2013-05-21 23:52:00,
2013-05-21 18:00:00,50.0,-99.9,-100.00,South,185,19.0,25.0,-999,-99.99,,,-99.99,,2013-05-22 00:00:00,
2013-05-21 18:52:00,50.0,-99.9,-100.00,South,185,19.0,25.0,-999,-99.99,,,-99.99,,2013-05-22 00:52:00,
2013-05-21 19:00:00,48.0,-99.9,-100.00,South,185,7.0,18.0,-999,-99.99,,,-99.99,,2013-05-22 01:00:00,
2013-05-21 19:52:00,48.0,-99.9,-100.00,South,185,7.0,18.0,-999,-99.99,,,-99.99,,2013-05-22 01:52:00,
2013-05-21 20:00:00,46.0,-99.9,-100.00,South,185,11.0,14.0,-999,-99.99,,,-99.99,,2013-05-22 02:00:00,
2013-05-21 20:52:00,46.0,-99.9,-100.00,South,185,11.0,14.0,-999,-99.99,,,-99.99,,2013-05-22 02:52:00,
2013-05-21 21:00:00,44.0,-99.9,-100.00,South,185,11.0,14.0,-999,-99.99,,,-99.99,,2013-05-22 03:00:00,
2013-05-21 21:53:00,44.0,-99.9,-100.00,South,185,11.0,14.0,-999,-99.99,,,-99.99,,2013-05-22 03:53:00,
2013-05-21 22:53:00,42.0,-99.9,-100.00,South,185,4.0,9.0,-999,-99.99,,,-99.99,,2013-05-22 04:53:00,
2013-05-21 23:00:00,41.0,-99.9,-100.00,South,185,9.0,16.0,-999,-99.99,,,-99.99,,2013-05-22 05:00:00,
2013-05-21 23:03:00,42.0,-99.9,-100.00,South,185,4.0,9.0,-999,-99.99,,,-99.99,,2013-05-22 05:03:00,
2013-05-21 23:52:00,41.0,-99.9,-100.00,South,185,9.0,16.0,-999,-99.99,,,-99.99,,2013-05-22 05:52:00,